Strona główna
Zdjęcia satelitarne 15-dni prognozyKlimatMeteorologia morska Cyklony Błyskawica LotniskoFAQ Gazetka O
Pogoda : Europa Afryka Ameryka Północna Ameryka Południowa Azja Australia-Oceania Inny
Języki Kontakt

Katowice, Polska

Pyrzowice

Szerokość geograficzna: 50-28-27N, Długość geograficzna: 019-04-48E, wysokość: 284 m


METAR: EPKT 160700Z 09009KT CAVOK 15/10 Q1021
short-TAF: EPKT 160530Z 1606/1615 09008KT CAVOK
long-TAF: przestarzały (19427 godziny)

czas: 09:24 (07:24 UTC)

Aktualna obserwacja pogody

Raport powstał 24 minut temu, godzina 07:00 UTC  
Wiatr 09 kt od wschód
Temperatura 15°C
Wilgotność 72%
Ciśnienie 1021 hPa
Widzialność 10 km lub więcej
Brak chmur poniżej 1500 m i brak chmur cumulonimbus

Jednostka miary

Prognoza

Raport powstał 1 godzina i 51 minut temu, godzina 05:33 UTC  
Prognoza ważna od 16 godzina 06 UTC do 16 godzina 15 UTC
Wiatr 08 kt od wschód
Widzialność 10 km lub więcej
Brak chmur poniżej 1500 m i brak chmur cumulonimbus
Informacje na tej stronie internetowej podlegają klauzuli o wyłączeniu odpowiedzialności
Pogoda : Europa Afryka Ameryka Północna Ameryka Południowa Azja Australia-Oceania Inny
Zdjęcia satelitarne 15-dni prognozyKlimatMeteorologia morska Cyklony Błyskawica LotniskoFAQ Języki Kontakt Gazetka O